Airport View

Enter AWOS ICAO identifier for current METAR.

ex. KFNL

KAVX 031651Z AUTO 29005KT 10SM CLR 20/14 A3005 RMK AO2 SLP162 T02000139

3 Jul 2020 17:13

Frequency: 120.675

Phone: 310-510-9641

Other Area AWOS: KTOA - KNUC - KLGB

TAF KLGB 031144Z 0312/0412 VRB03KT P6SM SKC FM031700 20007KT P6SM SKC FM032300 29010KT P6SM SKC FM040500 VRB03KT P6SM SKC FM041000 VRB03KT P6SM OVC009